Time;durP1;ratioP1;P1;durP2;ratioP2;P2;SDS_P1;SDS_P2;PMS_P1;PMS_P2;Temp;Humidity;BMP_temperature;BMP_pressure;BME280_temperature;BME280_humidity;BME280_pressure;Samples;Min_cycle;Max_cycle;Signal;HPM_P1;HPM_P2
2021/09/29 00:00:27;;;;;;;5.95;2.45;;;;;;;;;;4995048;28;20060;-76
2021/09/29 00:02:55;;;;;;;5.53;2.33;;;;;;;;;;4995713;28;20053;-76
2021/09/29 00:05:22;;;;;;;7.78;4.30;;;;;;;;;;4995158;28;20134;-76
2021/09/29 00:07:49;;;;;;;5.55;2.63;;;;;;;;;;4995035;28;20100;-76
2021/09/29 00:10:16;;;;;;;8.45;2.63;;;;;;;;;;4996265;28;20056;-76
2021/09/29 00:12:43;;;;;;;8.48;2.42;;;7.90;99.90;;;;;;4994997;28;20050;-76
2021/09/29 00:15:13;;;;;;;5.47;2.33;;;;;;;;;;4993804;28;20427;-76
2021/09/29 00:17:42;;;;;;;6.28;2.53;;;;;;;;;;4995635;28;20148;-76
2021/09/29 00:20:09;;;;;;;4.63;2.05;;;;;;;;;;4994445;28;20045;-76
2021/09/29 00:22:36;;;;;;;3.83;2.33;;;;;;;;;;4994443;28;20951;-76
2021/09/29 00:25:05;;;;;;;4.25;2.28;;;;;;;;;;4995468;28;20057;-76
2021/09/29 00:27:32;;;;;;;6.10;2.20;;;;;;;;;;4994851;28;20579;-76
2021/09/29 00:30:05;;;;;;;4.53;2.28;;;;;;;;;;4996393;28;20132;-76
2021/09/29 00:32:34;;;;;;;7.70;2.20;;;;;;;;;;4995159;28;20069;-76
2021/09/29 00:35:01;;;;;;;4.80;1.67;;;;;;;;;;4995165;28;20060;-76
2021/09/29 00:37:30;;;;;;;7.25;2.20;;;;;;;;;;4996102;28;20061;-76
2021/09/29 00:39:57;;;;;;;3.42;2.03;;;;;;;;;;4994630;28;20756;-76
2021/09/29 00:42:24;;;;;;;4.95;2.33;;;;;;;;;;4995617;28;20163;-76
2021/09/29 00:44:51;;;;;;;3.70;2.00;;;;;;;;;;4994870;28;20733;-76
2021/09/29 00:47:19;;;;;;;3.42;1.92;;;;;;;;;;4994811;28;20161;-76
2021/09/29 00:49:46;;;;;;;6.45;1.75;;;;;;;;;;4995081;28;20189;-76
2021/09/29 00:52:14;;;;;;;5.45;2.10;;;;;;;;;;4989244;28;20060;-76
2021/09/29 00:54:42;;;;;;;8.82;2.10;;;;;;;;;;5010750;28;20480;-76
2021/09/29 00:57:09;;;;;;;7.68;2.10;;;;;;;;;;4998072;28;20150;-76
2021/09/29 00:59:37;;;;;;;12.18;2.45;;;;;;;;;;4994501;28;20567;-76
2021/09/29 01:02:04;;;;;;;4.00;1.85;;;;;;;;;;4994391;28;20096;-76
2021/09/29 01:04:32;;;;;;;6.95;2.90;;;;;;;;;;4995555;28;20054;-76
2021/09/29 01:06:59;;;;;;;10.40;1.98;;;;;;;;;;4994028;28;20050;-76
2021/09/29 01:09:46;;;;;;;6.47;2.20;;;;;;;;;;4994165;28;20137;-76
2021/09/29 01:12:37;;;;;;;7.15;2.20;;;;;;;;;;4981661;28;20164;-77
2021/09/29 01:15:07;;;;;;;5.78;2.05;;;;;;;;;;4993676;28;20056;-77
2021/09/29 01:17:38;;;;;;;6.70;2.35;;;;;;;;;;4993873;28;20058;-77
2021/09/29 01:20:11;;;;;;;6.70;2.00;;;;;;;;;;5009327;28;20558;-77
2021/09/29 01:22:42;;;;;;;8.60;2.40;;;;;;;;;;4989463;28;20051;-77
2021/09/29 01:25:13;;;;;;;7.63;2.30;;;;;;;;;;4992736;28;20160;-77
2021/09/29 01:27:40;;;;;;;6.32;2.03;;;;;;;;;;4993983;28;20050;-77
2021/09/29 01:30:08;;;;;;;6.15;2.30;;;;;;;;;;5005388;28;20133;-77
2021/09/29 01:32:38;;;;;;;6.93;2.35;;;;;;;;;;5006897;28;20060;-77
2021/09/29 01:35:05;;;;;;;8.70;2.40;;;;;;;;;;5007337;28;20141;-77
2021/09/29 01:37:33;;;;;;;4.25;2.00;;;;;;;;;;5005564;28;20306;-77
2021/09/29 01:40:00;;;;;;;2.83;1.73;;;;;;;;;;5005965;28;20128;-77
2021/09/29 01:42:28;;;;;;;6.18;2.10;;;;;;;;;;5000625;28;20046;-77
2021/09/29 01:44:55;;;;;;;5.80;2.47;;;;;;;;;;5005223;28;20085;-77
2021/09/29 01:47:22;;;;;;;3.92;1.95;;;;;;;;;;5005473;28;20077;-77
2021/09/29 01:49:50;;;;;;;4.88;2.35;;;;;;;;;;5006804;28;20060;-77
2021/09/29 01:52:20;;;;;;;5.82;2.33;;;;;;;;;;5005476;28;20085;-77
2021/09/29 01:54:48;;;;;;;3.88;2.10;;;;;;;;;;5005272;28;20045;-77
2021/09/29 01:57:16;;;;;;;7.85;2.08;;;;;;;;;;5005282;28;20054;-77
2021/09/29 01:59:44;;;;;;;6.50;2.10;;;;;;;;;;5007801;28;20085;-77
2021/09/29 02:02:12;;;;;;;6.45;1.90;;;;;;;;;;4997990;28;20068;-77
2021/09/29 02:04:43;;;;;;;3.65;1.73;;;;;;;;;;4998186;28;20116;-77
2021/09/29 02:07:10;;;;;;;6.93;2.22;;;;;;;;;;4998667;28;20060;-77
2021/09/29 02:09:37;;;;;;;6.53;2.08;;;;;;;;;;4998153;28;20539;-77
2021/09/29 02:12:05;;;;;;;7.43;2.45;;;;;;;;;;4998692;28;20137;-77
2021/09/29 02:14:32;;;;;;;7.07;2.13;;;;;;;;;;4997377;28;20157;-77
2021/09/29 02:16:59;;;;;;;7.35;2.47;;;;;;;;;;4998783;28;20184;-77
2021/09/29 02:19:27;;;;;;;12.00;2.40;;;;;;;;;;4999191;28;20140;-77
2021/09/29 02:21:54;;;;;;;7.35;2.47;;;;;;;;;;4996592;28;20229;-77
2021/09/29 02:24:22;;;;;;;7.50;2.13;;;;;;;;;;4998182;28;20543;-77
2021/09/29 02:26:49;;;;;;;6.72;2.85;;;;;;;;;;4998604;28;20145;-76
2021/09/29 02:29:17;;;;;;;6.07;2.83;;;;;;;;;;5004373;28;20123;-76
2021/09/29 02:31:44;;;;;;;5.13;2.40;;;;;;;;;;5006491;28;20058;-76
2021/09/29 02:34:11;;;;;;;6.45;2.53;;;;;;;;;;5004504;28;20547;-76
2021/09/29 02:36:39;;;;;;;7.28;2.97;;;;;;;;;;5005423;28;20137;-76
2021/09/29 02:39:06;;;;;;;9.27;2.42;;;;;;;;;;5006585;28;20085;-77
2021/09/29 02:41:33;;;;;;;5.13;2.63;;;;;;;;;;5005834;28;20096;-77
2021/09/29 02:44:00;;;;;;;5.80;2.75;;;7.00;99.90;;;;;;5006474;28;20060;-76
2021/09/29 02:46:27;;;;;;;14.98;2.55;;;7.00;99.90;;;;;;5006501;28;20050;-76
2021/09/29 02:48:54;;;;;;;6.70;2.65;;;7.10;99.90;;;;;;5004749;28;20132;-76
2021/09/29 02:51:21;;;;;;;9.30;2.47;;;7.20;99.90;;;;;;5006041;28;20141;-76
2021/09/29 02:53:48;;;;;;;8.43;3.63;;;7.30;99.90;;;;;;5006244;28;20125;-76
2021/09/29 02:56:14;;;;;;;11.18;2.85;;;7.50;99.90;;;;;;5004734;28;20214;-76
2021/09/29 02:58:41;;;;;;;13.85;3.95;;;7.50;99.90;;;;;;5006107;28;20060;-76
2021/09/29 03:01:08;;;;;;;13.35;3.20;;;7.60;99.90;;;;;;5020609;28;20534;-76
2021/09/29 03:03:35;;;;;;;7.20;2.67;;;7.70;99.90;;;;;;5005831;28;20050;-76
2021/09/29 03:06:02;;;;;;;11.40;3.55;;;7.80;99.90;;;;;;5005086;28;20061;-75
2021/09/29 03:08:28;;;;;;;14.85;4.10;;;7.90;99.90;;;;;;5004788;28;20089;-76
2021/09/29 03:10:55;;;;;;;23.45;6.05;;;7.90;99.90;;;;;;5003639;28;20082;-76
2021/09/29 03:13:22;;;;;;;45.55;5.20;;;8.00;99.90;;;;;;5003384;28;20155;-76
2021/09/29 03:15:49;;;;;;;33.70;5.75;;;8.10;99.90;;;;;;5005804;28;20057;-76
2021/09/29 03:18:17;;;;;;;44.67;5.47;;;8.10;99.90;;;;;;5009615;28;20088;-76
2021/09/29 03:20:44;;;;;;;56.97;6.13;;;8.10;99.90;;;;;;5008580;28;20053;-76
2021/09/29 03:23:12;;;;;;;35.72;6.88;;;8.10;99.90;;;;;;5009635;28;20050;-76
2021/09/29 03:25:38;;;;;;;49.42;7.40;;;8.20;99.90;;;;;;5008827;28;20081;-76
2021/09/29 03:28:06;;;;;;;141.15;9.77;;;8.30;99.90;;;;;;5009216;28;20128;-77
2021/09/29 03:30:33;;;;;;;137.13;9.07;;;8.40;99.90;;;;;;5023854;28;20126;-76
2021/09/29 03:33:00;;;;;;;88.22;8.57;;;8.50;99.90;;;;;;5009481;28;20052;-76
2021/09/29 03:35:26;;;;;;;78.90;8.77;;;8.50;99.90;;;;;;5024285;28;20107;-76
2021/09/29 03:37:53;;;;;;;179.20;8.85;;;8.50;99.90;;;;;;5008052;28;20153;-77
2021/09/29 03:40:20;;;;;;;91.95;8.15;;;8.60;99.90;;;;;;5008818;28;20125;-76
2021/09/29 03:42:48;;;;;;;130.57;8.70;;;8.70;99.90;;;;;;5009062;28;20192;-77
2021/09/29 03:45:15;;;;;;;75.97;8.80;;;8.70;99.90;;;;;;5007456;28;20137;-76
2021/09/29 03:47:43;;;;;;;63.58;8.50;;;8.80;99.90;;;;;;5008840;28;20507;-76
2021/09/29 03:50:11;;;;;;;58.35;8.68;;;8.90;99.90;;;;;;5008967;28;20125;-77
2021/09/29 03:52:39;;;;;;;101.95;9.18;;;8.90;99.90;;;;;;5009319;28;20503;-77
2021/09/29 03:55:07;;;;;;;75.97;10.13;;;8.90;99.90;;;;;;5009017;28;20125;-77
2021/09/29 03:57:34;;;;;;;67.05;8.85;;;8.90;99.90;;;;;;5008184;28;20157;-77
2021/09/29 04:00:06;;;;;;;52.80;9.82;;;8.90;99.90;;;;;;5007640;28;20045;-77
2021/09/29 04:02:33;;;;;;;88.45;10.32;;;9.00;99.90;;;;;;5001258;28;20153;-76
2021/09/29 04:04:59;;;;;;;78.80;9.40;;;9.00;99.90;;;;;;5008527;28;20057;-77
2021/09/29 04:07:26;;;;;;;58.80;9.35;;;8.90;99.90;;;;;;4988768;28;20161;-77
2021/09/29 04:09:53;;;;;;;110.18;10.68;;;8.90;99.90;;;;;;5001891;28;20702;-77
2021/09/29 04:12:23;;;;;;;63.10;10.35;;;9.10;99.90;;;;;;5002114;28;20576;-77
2021/09/29 04:14:51;;;;;;;50.72;9.85;;;9.20;99.90;;;;;;5008138;28;20132;-76
2021/09/29 04:17:18;;;;;;;58.58;9.63;;;9.30;99.90;;;;;;5008663;28;20045;-76
2021/09/29 04:19:45;;;;;;;151.77;12.40;;;9.40;99.90;;;;;;5006129;28;20560;-77
2021/09/29 04:22:12;;;;;;;92.25;11.13;;;9.20;99.90;;;;;;5008616;28;20113;-77
2021/09/29 04:24:40;;;;;;;151.80;14.57;;;9.30;99.90;;;;;;5011902;28;20069;-82
2021/09/29 04:27:08;;;;;;;189.95;15.18;;;9.40;99.90;;;;;;5007982;28;20832;-81
2021/09/29 04:29:37;;;;;;;104.15;12.18;;;9.50;99.90;;;;;;5002514;28;20460;-81
2021/09/29 04:32:08;;;;;;;88.70;11.38;;;9.60;99.90;;;;;;5006915;28;20135;-84
2021/09/29 04:34:35;;;;;;;56.22;10.40;;;9.70;99.90;;;;;;5005489;28;20034;-83
2021/09/29 04:37:02;;;;;;;44.53;11.05;;;9.80;99.90;;;;;;5005092;28;20141;-85
2021/09/29 04:39:29;;;;;;;34.22;10.27;;;9.90;99.90;;;;;;5004937;28;20070;-84
2021/09/29 04:42:07;;;;;;;71.05;10.20;;;10.00;99.90;;;;;;5006545;28;20061;-86
2021/09/29 04:44:33;;;;;;;29.90;10.55;;;10.00;99.90;;;;;;5005094;28;20476;-87
2021/09/29 04:47:00;;;;;;;55.38;12.27;;;10.00;99.90;;;;;;5008619;28;20073;-85
2021/09/29 04:49:27;;;;;;;180.40;13.60;;;10.00;99.90;;;;;;5020534;28;20057;-82
2021/09/29 04:51:54;;;;;;;96.75;12.60;;;10.10;99.90;;;;;;5017965;28;20168;-82
2021/09/29 04:54:21;;;;;;;136.00;13.02;;;10.00;99.90;;;;;;5002910;28;20105;-84
2021/09/29 04:56:47;;;;;;;95.57;12.07;;;10.10;99.90;;;;;;5002392;28;20050;-83
2021/09/29 04:59:14;;;;;;;125.05;12.45;;;10.10;99.90;;;;;;5021790;28;20058;-84
2021/09/29 05:01:42;;;;;;;51.60;11.20;;;10.20;99.90;;;;;;5020667;28;20077;-86
2021/09/29 05:04:11;;;;;;;62.30;12.63;;;10.20;99.90;;;;;;5004209;28;20065;-83
2021/09/29 05:06:40;;;;;;;83.93;13.23;;;10.20;99.90;;;;;;5004886;28;20141;-82
2021/09/29 05:09:07;;;;;;;38.55;11.00;;;10.20;99.90;;;;;;5009165;28;20121;-84
2021/09/29 05:11:47;;;;;;;31.85;11.10;;;10.20;99.90;;;;;;5017230;28;20103;-83
2021/09/29 05:14:14;;;;;;;44.38;11.27;;;10.30;99.90;;;;;;5002481;28;20137;-83
2021/09/29 05:16:41;;;;;;;41.47;11.57;;;10.30;99.90;;;;;;5002685;28;20140;-83
2021/09/29 05:19:08;;;;;;;36.13;12.52;;;10.30;99.90;;;;;;5002738;28;20046;-83
2021/09/29 05:21:34;;;;;;;54.58;11.55;;;10.40;99.90;;;;;;5004822;28;20068;-83
2021/09/29 05:24:02;;;;;;;58.40;12.13;;;10.40;99.90;;;;;;5020055;28;20145;-83
2021/09/29 05:26:29;;;;;;;61.03;12.20;;;10.40;99.90;;;;;;4999001;28;20050;-83
2021/09/29 05:28:57;;;;;;;51.22;12.80;;;10.30;99.90;;;;;;5000701;28;20070;-83
2021/09/29 05:31:23;;;;;;;30.92;11.65;;;10.40;99.90;;;;;;5015996;28;20132;-83
2021/09/29 05:33:50;;;;;;;38.63;12.70;;;10.50;99.90;;;;;;5021659;28;20050;-83
2021/09/29 05:36:17;;;;;;;49.72;12.82;;;10.50;99.90;;;;;;5005923;28;20050;-84
2021/09/29 05:38:44;;;;;;;64.80;13.57;;;10.40;99.90;;;;;;5021410;28;20057;-83
2021/09/29 05:41:11;;;;;;;49.63;12.80;;;10.40;99.90;;;;;;5002081;28;20069;-83
2021/09/29 05:43:38;;;;;;;34.58;12.82;;;10.40;99.90;;;;;;5005524;28;20050;-83
2021/09/29 05:46:05;;;;;;;32.58;12.32;;;10.50;99.90;;;;;;5021115;28;20127;-83
2021/09/29 05:48:32;;;;;;;35.95;13.88;;;10.60;99.90;;;;;;5002967;28;20042;-83
2021/09/29 05:50:58;;;;;;;29.23;12.43;;;10.60;99.90;;;;;;4999868;28;20085;-84
2021/09/29 05:53:25;;;;;;;39.20;12.80;;;10.60;99.90;;;;;;5019103;28;20078;-83
2021/09/29 05:55:53;;;;;;;33.50;13.38;;;10.70;99.90;;;;;;5004865;28;20042;-84
2021/09/29 05:58:20;;;;;;;38.90;13.57;;;10.80;99.90;;;;;;5002350;28;20407;-84
2021/09/29 06:00:47;;;;;;;33.47;13.02;;;10.70;99.90;;;;;;5014039;28;20049;-84
2021/09/29 06:03:15;;;;;;;35.00;12.48;;;10.70;99.90;;;;;;5004664;28;20081;-83
2021/09/29 06:05:42;;;;;;;31.63;12.02;;;10.70;99.90;;;;;;5005297;28;20411;-83
2021/09/29 06:08:09;;;;;;;30.30;12.80;;;10.80;99.90;;;;;;5019086;28;20081;-83
2021/09/29 06:10:36;;;;;;;31.52;11.70;;;10.80;99.90;;;;;;5002811;28;20065;-83
2021/09/29 06:13:03;;;;;;;28.05;12.27;;;10.90;99.90;;;;;;5005354;28;20077;-84
2021/09/29 06:15:31;;;;;;;28.55;12.13;;;11.00;99.90;;;;;;5006513;28;20482;-83
2021/09/29 06:17:59;;;;;;;30.75;11.13;;;11.00;99.90;;;;;;5004547;28;20462;-84
2021/09/29 06:20:28;;;;;;;36.33;11.45;;;11.10;99.90;;;;;;5002642;28;20483;-84
2021/09/29 06:22:54;;;;;;;35.10;13.05;;;11.20;99.90;;;;;;5003329;28;20085;-84
2021/09/29 06:25:22;;;;;;;30.67;12.77;;;11.20;99.90;;;;;;5005048;28;20058;-84
2021/09/29 06:27:49;;;;;;;37.58;12.95;;;11.40;99.90;;;;;;5015738;28;20766;-83
2021/09/29 06:30:17;;;;;;;42.50;12.05;;;11.50;99.90;;;;;;5006880;28;20050;-84
2021/09/29 06:32:44;;;;;;;38.60;12.52;;;11.50;99.90;;;;;;5019663;28;20245;-83
2021/09/29 06:35:12;;;;;;;43.35;13.02;;;11.60;99.90;;;;;;5004781;28;20069;-83
2021/09/29 06:37:39;;;;;;;48.50;15.70;;;11.70;99.90;;;;;;5003816;28;20053;-83
2021/09/29 06:40:07;;;;;;;54.13;15.65;;;11.70;99.90;;;;;;5002730;28;20078;-83
2021/09/29 06:42:34;;;;;;;71.57;17.70;;;11.80;99.90;;;;;;5002017;28;20080;-84
2021/09/29 06:45:01;;;;;;;59.60;15.40;;;11.80;99.90;;;;;;4999633;28;20054;-84
2021/09/29 06:47:27;;;;;;;46.65;15.23;;;11.80;99.90;;;;;;5002834;28;20077;-80
2021/09/29 06:49:54;;;;;;;52.22;15.48;;;11.90;99.90;;;;;;5001969;28;20078;-83
2021/09/29 06:52:21;;;;;;;67.10;16.95;;;12.00;99.90;;;;;;5017341;28;20161;-78
2021/09/29 06:54:47;;;;;;;65.95;18.25;;;12.10;99.90;;;;;;5007805;28;20121;-86
2021/09/29 06:57:14;;;;;;;56.45;17.02;;;12.10;99.90;;;;;;5007957;28;20139;-82
2021/09/29 06:59:41;;;;;;;57.22;19.23;;;12.10;99.90;;;;;;5009030;28;20081;-79
2021/09/29 07:02:11;;;;;;;56.58;18.13;;;12.20;99.90;;;;;;5006194;28;20474;-78
2021/09/29 07:04:40;;;;;;;58.58;16.98;;;12.20;99.90;;;;;;5024209;28;20133;-79
2021/09/29 07:07:06;;;;;;;62.70;18.13;;;12.30;99.90;;;;;;5008401;28;20077;-79
2021/09/29 07:09:33;;;;;;;58.38;17.33;;;12.30;99.90;;;;;;5003886;28;20491;-78
2021/09/29 07:12:00;;;;;;;52.28;17.55;;;12.40;99.90;;;;;;5007938;28;20085;-77
2021/09/29 07:14:29;;;;;;;47.95;16.85;;;12.30;99.90;;;;;;4998559;28;20065;-84
2021/09/29 07:16:56;;;;;;;61.05;18.60;;;12.30;99.90;;;;;;5013053;28;20596;-85
2021/09/29 07:19:23;;;;;;;52.67;17.85;;;12.30;99.90;;;;;;5009161;28;20522;-85
2021/09/29 07:21:57;;;;;;;53.22;18.05;;;12.30;99.90;;;;;;5009954;28;20089;-84
2021/09/29 07:24:24;;;;;;;57.53;17.20;;;12.30;99.90;;;;;;5012240;28;20133;-84
2021/09/29 07:26:50;;;;;;;58.15;19.15;;;12.40;99.90;;;;;;5010198;28;20081;-86
2021/09/29 07:29:17;;;;;;;55.60;18.92;;;12.50;99.90;;;;;;5024723;28;20136;-86
2021/09/29 07:31:44;;;;;;;54.40;19.17;;;12.70;99.90;;;;;;5009646;28;20073;-86
2021/09/29 07:34:12;;;;;;;61.97;19.52;;;12.70;99.90;;;;;;5008499;28;20061;-86
2021/09/29 07:36:38;;;;;;;57.03;18.98;;;12.60;99.90;;;;;;5008443;28;20907;-89
2021/09/29 07:39:06;;;;;;;85.28;22.92;;;12.70;99.90;;;;;;5000450;28;20132;-86
2021/09/29 07:41:34;;;;;;;54.20;18.20;;;12.90;99.90;;;;;;5009274;28;20554;-86
2021/09/29 07:44:01;;;;;;;53.72;18.88;;;13.00;99.90;;;;;;5025576;28;20402;-86
2021/09/29 07:46:28;;;;;;;50.10;19.27;;;13.20;99.90;;;;;;5026090;28;20100;-87
2021/09/29 07:48:55;;;;;;;51.28;19.90;;;13.30;99.90;;;;;;5025376;28;20050;-85
2021/09/29 07:51:21;;;;;;;52.15;19.00;;;13.30;99.90;;;;;;5026760;28;20089;-84
2021/09/29 07:53:48;;;;;;;51.72;18.38;;;13.30;99.90;;;;;;5007348;28;20188;-83
2021/09/29 07:56:15;;;;;;;46.65;19.50;;;13.30;99.90;;;;;;4995329;28;20161;-88
2021/09/29 07:58:42;;;;;;;52.28;20.05;;;13.40;99.90;;;;;;4999360;28;20046;-86
2021/09/29 08:01:10;;;;;;;54.95;19.25;;;13.50;99.90;;;;;;5012595;28;20084;-87
2021/09/29 08:03:38;;;;;;;57.72;20.58;;;13.50;99.90;;;;;;5010835;28;20049;-88
2021/09/29 08:06:05;;;;;;;54.47;20.42;;;13.50;99.90;;;;;;5011567;28;20089;-83
2021/09/29 08:08:32;;;;;;;52.08;21.50;;;13.60;99.90;;;;;;5011824;28;20111;-84
2021/09/29 08:10:59;;;;;;;51.55;20.35;;;13.60;99.90;;;;;;5012123;28;20073;-88
2021/09/29 08:13:35;;;;;;;51.70;20.60;;;13.60;99.90;;;;;;5001995;28;20058;-86
2021/09/29 08:16:06;;;;;;;53.20;20.13;;;13.70;99.90;;;;;;4995874;28;20038;-86
2021/09/29 08:18:33;;;;;;;48.03;18.15;;;13.80;99.90;;;;;;5012525;28;20054;-87
2021/09/29 08:21:03;;;;;;;55.00;20.23;;;13.90;99.90;;;;;;5016368;28;20054;-87
2021/09/29 08:23:41;;;;;;;48.70;19.55;;;14.00;99.90;;;;;;5013044;28;20137;-88
2021/09/29 08:29:28;;;;;;;45.15;18.45;;;14.10;99.90;;;;;;5011279;28;20112;-83
2021/09/29 08:32:18;;;;;;;39.10;17.17;;;14.20;99.90;;;;;;5012416;28;20141;-84
2021/09/29 08:35:09;;;;;;;44.92;18.23;;;14.30;99.90;;;;;;4999099;28;20106;-84
2021/09/29 08:37:45;;;;;;;40.47;16.27;;;14.20;99.90;;;;;;5011608;28;20100;-82
2021/09/29 08:40:20;;;;;;;45.83;17.30;;;14.30;99.90;;;;;;5013549;28;20089;-83
2021/09/29 08:45:38;;;;;;;40.80;17.40;;;14.20;99.90;;;;;;5013559;28;20078;-85
2021/09/29 08:56:21;;;;;;;35.17;16.35;;;14.80;99.90;;;;;;5005552;28;20862;-84
2021/09/29 09:18:21;;;;;;;36.70;13.38;;;15.60;99.90;;;;;;5011723;28;20050;-84
2021/09/29 09:21:00;;;;;;;35.40;14.90;;;15.50;99.90;;;;;;5011029;28;20101;-85
2021/09/29 09:23:39;;;;;;;33.95;14.48;;;15.50;99.90;;;;;;5011162;28;20100;-85
2021/09/29 09:26:20;;;;;;;34.03;14.30;;;15.40;99.90;;;;;;5010232;28;20073;-84
2021/09/29 09:28:49;;;;;;;26.02;13.07;;;15.40;99.90;;;;;;5011131;28;20827;-84
2021/09/29 09:31:18;;;;;;;30.38;14.02;;;15.30;99.90;;;;;;5006514;28;20480;-85
2021/09/29 09:33:58;;;;;;;28.58;13.38;;;15.50;99.90;;;;;;5010926;28;20134;-85
2021/09/29 09:36:35;;;;;;;27.52;12.75;;;15.40;99.90;;;;;;5010415;28;20092;-84
2021/09/29 09:39:15;;;;;;;28.35;13.68;;;15.30;99.90;;;;;;5012968;28;20050;-86
2021/09/29 09:41:53;;;;;;;32.78;14.00;;;15.20;99.90;;;;;;5021648;28;20128;-87
2021/09/29 09:44:25;;;;;;;28.50;13.88;;;15.10;99.90;;;;;;5007308;28;20130;-84
2021/09/29 09:47:01;;;;;;;29.50;14.10;;;15.00;99.90;;;;;;4991744;28;20055;-87
2021/09/29 09:49:28;;;;;;;30.38;13.38;;;14.90;99.90;;;;;;4991084;28;20048;-85
2021/09/29 09:51:59;;;;;;;24.88;13.05;;;14.90;99.90;;;;;;5006463;28;20100;-86
2021/09/29 09:54:37;;;;;;;22.48;12.07;;;14.90;99.90;;;;;;5011155;28;20077;-81
2021/09/29 09:57:21;;;;;;;23.00;12.55;;;14.90;99.90;;;;;;5011932;28;20080;-87
2021/09/29 09:59:52;;;;;;;38.30;14.95;;;14.70;99.90;;;;;;5010732;28;20133;-85
2021/09/29 10:02:20;;;;;;;32.15;14.27;;;14.60;99.90;;;;;;5009304;28;20080;-80
2021/09/29 10:04:48;;;;;;;35.95;13.95;;;14.60;99.90;;;;;;5004571;28;20045;-81
2021/09/29 10:07:16;;;;;;;32.60;14.40;;;14.60;99.90;;;;;;5026760;28;20499;-84
2021/09/29 10:13:04;;;;;;;36.33;16.23;;;14.60;99.90;;;;;;5006790;28;20445;-81
2021/09/29 10:24:11;;;;;;;37.55;16.27;;;14.40;99.90;;;;;;5002876;28;20080;-84
2021/09/29 10:26:37;;;;;;;39.40;17.48;;;14.20;99.90;;;;;;5005678;28;20128;-84
2021/09/29 10:29:12;;;;;;;38.13;17.38;;;14.10;99.90;;;;;;5003454;28;20150;-83
2021/09/29 10:34:41;;;;;;;36.40;18.27;;;14.20;99.90;;;;;;5004855;28;20050;-82
2021/09/29 10:50:58;;;;;;;35.15;17.25;;;14.40;99.90;;;;;;5004689;28;20125;-84
2021/09/29 11:07:28;;;;;;;46.58;17.05;;;14.00;99.90;;;;;;5002788;28;20156;-81
2021/09/29 11:32:39;;;;;;;54.20;15.27;;;13.70;99.90;;;;;;4993687;28;20153;-83
2021/09/29 11:38:23;;;;;;;62.63;15.93;;;13.60;99.90;;;;;;5003681;28;20137;-83
2021/09/29 11:49:31;;;;;;;43.70;15.25;;;13.50;99.90;;;;;;5008580;28;20056;-82
2021/09/29 12:11:13;;;;;;;74.28;17.45;;;13.60;99.90;;;;;;5004264;28;20819;-87
2021/09/29 12:13:58;;;;;;;39.78;15.02;;;13.70;99.90;;;;;;4997225;28;20578;-88
2021/09/29 12:16:37;;;;;;;42.08;14.73;;;13.70;99.90;;;;;;4994039;28;20411;-90
2021/09/29 12:19:07;;;;;;;42.22;14.98;;;13.90;99.90;;;;;;4994552;28;20807;-89
2021/09/29 12:21:47;;;;;;;32.88;13.48;;;14.10;99.90;;;;;;4996736;28;20103;-91
2021/09/29 12:24:36;;;;;;;37.05;13.60;;;14.30;99.90;;;;;;5000180;28;20053;-93
2021/09/29 12:27:04;;;;;;;30.23;11.90;;;14.90;99.90;;;;;;5018445;28;20042;-94
2021/09/29 12:29:35;;;;;;;30.88;12.35;;;14.90;99.90;;;;;;5011345;28;20046;-93
2021/09/29 12:37:53;;;;;;;28.60;10.50;;;15.30;99.90;;;;;;5009547;28;20046;-94
2021/09/29 12:40:19;;;;;;;18.30;7.75;;;15.40;99.90;;;;;;5014772;28;20052;-92
2021/09/29 12:42:59;;;;;;;24.42;9.65;;;15.20;99.90;;;;;;5012528;28;20061;-94
2021/09/29 12:49:18;;;;;;;15.13;7.30;;;15.00;99.90;;;;;;5016770;28;20041;-93
2021/09/29 12:55:36;;;;;;;15.13;6.32;;;14.80;99.90;;;;;;5017025;28;20069;-92
2021/09/29 12:58:49;;;;;;;16.63;5.88;;;14.80;99.90;;;;;;5015908;28;20073;-93
2021/09/29 13:01:54;;;;;;;16.88;6.75;;;14.80;99.90;;;;;;5004934;28;20399;-93
2021/09/29 13:08:11;;;;;;;16.38;6.68;;;14.80;99.90;;;;;;5016879;28;20053;-92
2021/09/29 13:10:38;;;;;;;19.02;7.25;;;14.80;99.90;;;;;;5031145;28;20100;-92
2021/09/29 13:13:05;;;;;;;20.17;8.35;;;14.70;99.90;;;;;;5010966;28;20108;-92
2021/09/29 13:15:39;;;;;;;15.40;6.15;;;14.80;99.90;;;;;;5011654;28;20074;-91
2021/09/29 13:21:05;;;;;;;15.20;6.95;;;14.70;99.90;;;;;;5010808;28;20082;-93
2021/09/29 13:23:36;;;;;;;14.13;6.43;;;14.70;99.90;;;;;;5008554;28;20080;-92
2021/09/29 13:37:07;;;;;;;14.02;6.50;;;14.80;99.90;;;;;;5011303;28;20053;-91
2021/09/29 13:39:36;;;;;;;12.82;6.35;;;15.00;99.90;;;;;;5017805;28;20128;-90
2021/09/29 13:42:03;;;;;;;13.35;6.63;;;15.10;99.90;;;;;;5014543;28;20104;-82
2021/09/29 13:44:30;;;;;;;17.05;6.05;;;15.30;99.90;;;;;;4999895;28;20137;-83
2021/09/29 13:46:59;;;;;;;8.63;4.90;;;15.50;99.90;;;;;;5009394;28;20068;-83
2021/09/29 13:49:28;;;;;;;8.30;4.90;;;15.50;99.90;;;;;;4991779;28;20042;-87
2021/09/29 13:52:13;;;;;;;8.02;4.80;;;15.50;99.90;;;;;;5006122;28;20042;-87
2021/09/29 13:54:56;;;;;;;9.60;4.40;;;15.60;99.90;;;;;;5005974;28;20060;-85
2021/09/29 13:59:59;;;;;;;11.20;4.90;;;15.50;99.90;;;;;;4995793;28;20123;-85
2021/09/29 14:30:17;;;;;;;10.73;4.18;;;15.60;99.90;;;;;;5007095;28;20132;-87
2021/09/29 14:32:58;;;;;;;8.10;4.10;;;15.80;99.90;;;;;;5023193;28;20104;-87
2021/09/29 14:35:25;;;;;;;8.00;5.05;;;16.00;99.90;;;;;;5007033;28;20074;-87
2021/09/29 14:37:56;;;;;;;8.65;4.20;;;16.20;99.90;;;;;;5023625;28;20462;-86
2021/09/29 14:40:33;;;;;;;8.70;4.15;;;16.20;99.90;;;;;;5006480;28;20696;-87
2021/09/29 14:43:04;;;;;;;13.27;5.70;;;16.10;99.90;;;;;;5023000;28;20112;-87
2021/09/29 14:45:34;;;;;;;7.80;4.60;;;16.00;99.90;;;;;;5006917;28;21438;-87
2021/09/29 14:48:02;;;;;;;7.82;4.85;;;16.00;99.90;;;;;;5007487;28;20066;-93
2021/09/29 14:50:28;;;;;;;8.48;4.07;;;15.90;99.90;;;;;;5007100;28;20054;-87
2021/09/29 14:52:57;;;;;;;6.50;4.72;;;15.80;99.90;;;;;;5010384;28;20074;-88
2021/09/29 14:55:28;;;;;;;11.32;5.07;;;15.80;99.90;;;;;;5010777;28;20077;-88
2021/09/29 14:58:00;;;;;;;7.55;4.57;;;15.70;99.90;;;;;;5009697;28;20491;-85
2021/09/29 15:00:30;;;;;;;7.63;4.65;;;15.70;99.90;;;;;;5002727;28;20081;-87
2021/09/29 15:02:58;;;;;;;7.00;4.65;;;15.60;99.90;;;;;;5002511;28;20065;-87
2021/09/29 15:05:30;;;;;;;10.15;5.30;;;15.60;99.90;;;;;;5003423;28;20046;-84
2021/09/29 15:07:57;;;;;;;9.32;4.88;;;15.50;99.90;;;;;;5001693;28;20077;-84
2021/09/29 15:10:24;;;;;;;9.95;5.25;;;15.40;99.90;;;;;;5003731;28;20152;-84
2021/09/29 15:12:52;;;;;;;8.68;5.22;;;15.50;99.90;;;;;;5007711;28;20055;-84
2021/09/29 15:15:28;;;;;;;8.60;5.30;;;15.50;99.90;;;;;;5008069;28;21411;-84
2021/09/29 15:17:58;;;;;;;9.00;5.13;;;15.50;99.90;;;;;;5010747;28;20052;-84
2021/09/29 15:21:11;;;;;;;9.82;5.78;;;15.50;99.90;;;;;;5008251;28;20140;-84
2021/09/29 15:23:25;;;;;;;15.82;7.25;;;15.60;99.90;;;;;;5008131;28;20141;-84
2021/09/29 15:29:14;;;;;;;20.55;9.75;;;15.80;99.90;;;;;;5012782;28;20107;-85
2021/09/29 15:48:41;;;;;;;25.20;12.20;;;14.80;99.90;;;;;;5012262;28;20058;-93
2021/09/29 15:59:46;;;;;;;28.92;13.23;;;14.50;99.90;;;;;;5009100;28;20089;-84
2021/09/29 16:02:00;;;;;;;32.40;14.23;;;14.40;99.90;;;;;;5009136;28;20077;-85
2021/09/29 16:04:36;;;;;;;34.20;14.45;;;14.40;99.90;;;;;;5009840;28;20610;-86
2021/09/29 16:07:13;;;;;;;36.33;15.10;;;14.30;99.90;;;;;;5036682;28;20061;-87
2021/09/29 16:13:03;;;;;;;30.73;14.30;;;14.30;99.90;;;;;;5009322;28;20479;-84
2021/09/29 16:31:17;;;;;;;42.25;16.02;;;13.90;99.90;;;;;;5012202;28;20160;-83
2021/09/29 16:33:50;;;;;;;37.47;14.75;;;13.80;99.90;;;;;;5012242;28;20046;-83
2021/09/29 16:36:23;;;;;;;42.05;15.98;;;13.80;99.90;;;;;;4998994;28;20140;-83
2021/09/29 16:38:59;;;;;;;43.92;16.88;;;13.80;99.90;;;;;;5008972;28;20119;-83
2021/09/29 16:41:26;;;;;;;39.90;17.00;;;13.70;99.90;;;;;;5007074;28;20082;-84
2021/09/29 16:43:56;;;;;;;42.08;17.17;;;13.70;99.90;;;;;;5001566;28;20046;-86
2021/09/29 16:46:30;;;;;;;40.13;15.75;;;13.70;99.90;;;;;;4999383;28;20062;-82
2021/09/29 16:49:06;;;;;;;40.25;17.55;;;13.60;99.90;;;;;;4992805;28;20051;-82
2021/09/29 16:51:47;;;;;;;38.70;16.30;;;13.60;99.90;;;;;;5005601;28;20128;-83
2021/09/29 16:54:18;;;;;;;37.42;16.73;;;13.60;99.90;;;;;;4999325;28;20050;-83
2021/09/29 16:56:45;;;;;;;41.50;17.10;;;13.60;99.90;;;;;;5007977;28;20061;-83
2021/09/29 17:01:45;;;;;;;42.20;17.75;;;13.70;99.90;;;;;;5011071;28;20088;-84
2021/09/29 17:04:13;;;;;;;45.35;17.65;;;13.70;99.90;;;;;;5002990;28;20069;-83
2021/09/29 17:06:40;;;;;;;42.15;18.52;;;13.60;99.90;;;;;;5009757;28;20077;-83
2021/09/29 17:09:12;;;;;;;42.30;17.73;;;13.70;99.90;;;;;;5027474;28;20138;-83